This is the latest recevied weather packets stored in our database for station/object FREPRT-WX. If no packets are shown the sender has not sent any weather packets the latest 10 day(s).
| Time | Temp. | Humidity | Pressure | Rain* | Wind** | Luminosity | Snow |
|---|---|---|---|---|---|---|---|
| 1778010337 | 12.22° C | 34% | 979.7 hPa | 0 mm | - | - | - |
| 1778009454 | 12.78° C | 34% | 979.7 hPa | 0 mm | - | - | - |
| 1778008540 | 12.78° C | 34% | 979.7 hPa | 0 mm | - | - | - |
| 1778007666 | 12.78° C | 34% | 979.7 hPa | 0 mm | - | - | - |
| 1778006740 | 12.78° C | 37% | 980.2 hPa | 0 mm | - | - | - |
| 1778005863 | 12.78° C | 38% | 979.6 hPa | 0 mm | - | - | - |
| 1778004940 | 12.78° C | 38% | 979.7 hPa | 0 mm | - | - | - |
| 1778004072 | 12.78° C | 38% | 979.7 hPa | 0 mm | - | - | - |
| 1778003140 | 12.78° C | 36% | 978.9 hPa | 0 mm | - | - | - |
| 1778002256 | 12.78° C | 35% | 978.2 hPa | 0 mm | - | - | - |
| 1778001340 | 12.22° C | 35% | 978.2 hPa | 0 mm | - | - | - |
| 1778000470 | 12.22° C | 35% | 978.2 hPa | 0 mm | - | - | - |
| 1777999540 | 11.67° C | 41% | 978.7 hPa | 0 mm | - | - | - |
| 1777998659 | 11.67° C | 41% | 977.3 hPa | 0 mm | - | - | - |
| 1777997741 | 11.67° C | 41% | 977.3 hPa | 0 mm | - | - | - |
| 1777996873 | 11.67° C | 41% | 977.3 hPa | 0 mm | - | - | - |
| 1777995938 | 10.56° C | 52% | 978.9 hPa | 0 mm | - | - | - |
| 1777995062 | 11.11° C | 46% | 977.9 hPa | 0 mm | - | - | - |
| 1777994140 | 11.11° C | 46% | 977.9 hPa | 0 mm | - | - | - |
| 1777993279 | 11.11° C | 46% | 977.9 hPa | 0 mm | - | - | - |
| 1777992340 | 10.56° C | 66% | 977.9 hPa | 0 mm | - | - | - |
| 1777991459 | 11.11° C | 54% | 977.9 hPa | 0 mm | - | - | - |
| 1777990540 | 11.11° C | 54% | 977.9 hPa | 0 mm | - | - | - |
| 1777989679 | 10.56° C | 54% | 977.9 hPa | 0 mm | - | - | - |
| 1777988740 | 10.56° C | 63% | 977.7 hPa | 0 mm | - | - | - |
* Rain latest hour (hover to see other rain measurements)
** Current wind speed in m/s (hover to see current wind gust speed)